sensor_id;sensor_type;location;lat;lon;timestamp;pressure;altitude;pressure_sealevel;temperature;humidity
17209;BME280;8720;48.488;9.202;2024-03-23T00:55:25;96327.16;;;13.96;43.28
17209;BME280;8720;48.488;9.202;2024-03-23T00:57:52;96325.38;;;13.96;43.36
17209;BME280;8720;48.488;9.202;2024-03-23T01:00:19;96308.41;;;13.85;43.38
17209;BME280;8720;48.488;9.202;2024-03-23T01:02:46;96314.16;;;13.93;43.43
17209;BME280;8720;48.488;9.202;2024-03-23T01:05:12;96324.75;;;13.91;43.44
17209;BME280;8720;48.488;9.202;2024-03-23T01:07:40;96313.47;;;13.89;43.59
17209;BME280;8720;48.488;9.202;2024-03-23T01:10:08;96310.03;;;13.87;43.52
17209;BME280;8720;48.488;9.202;2024-03-23T01:12:36;96311.03;;;13.85;43.54
17209;BME280;8720;48.488;9.202;2024-03-23T01:15:02;96292.72;;;13.83;43.48
17209;BME280;8720;48.488;9.202;2024-03-23T01:17:30;96304.88;;;13.86;43.63
17209;BME280;8720;48.488;9.202;2024-03-23T01:19:56;96304.00;;;13.85;43.77
17209;BME280;8720;48.488;9.202;2024-03-23T01:22:23;96303.16;;;13.85;43.70
17209;BME280;8720;48.488;9.202;2024-03-23T01:24:50;96298.84;;;13.84;43.84
17209;BME280;8720;48.488;9.202;2024-03-23T01:27:18;96285.00;;;13.80;43.91
17209;BME280;8720;48.488;9.202;2024-03-23T01:29:45;96281.59;;;13.78;43.95
17209;BME280;8720;48.488;9.202;2024-03-23T01:32:12;96278.94;;;13.78;43.91
17209;BME280;8720;48.488;9.202;2024-03-23T01:34:38;96275.47;;;13.78;44.14
17209;BME280;8720;48.488;9.202;2024-03-23T01:37:06;96276.31;;;13.78;44.25
17209;BME280;8720;48.488;9.202;2024-03-23T01:39:32;96271.84;;;13.80;44.52
17209;BME280;8720;48.488;9.202;2024-03-23T01:41:59;96262.81;;;13.86;44.84
17209;BME280;8720;48.488;9.202;2024-03-23T01:44:27;96250.22;;;13.92;45.04
17209;BME280;8720;48.488;9.202;2024-03-23T01:46:55;96253.25;;;14.02;45.23
17209;BME280;8720;48.488;9.202;2024-03-23T01:49:21;96251.91;;;14.10;45.63
17209;BME280;8720;48.488;9.202;2024-03-23T01:51:49;96253.72;;;14.27;45.33
17209;BME280;8720;48.488;9.202;2024-03-23T01:54:16;96247.47;;;14.29;44.84
17209;BME280;8720;48.488;9.202;2024-03-23T01:56:43;96247.31;;;14.32;44.81
17209;BME280;8720;48.488;9.202;2024-03-23T01:59:09;96241.13;;;14.33;44.89
17209;BME280;8720;48.488;9.202;2024-03-23T02:01:38;96244.53;;;14.35;44.68
17209;BME280;8720;48.488;9.202;2024-03-23T02:04:04;96238.41;;;14.35;44.81
17209;BME280;8720;48.488;9.202;2024-03-23T02:06:33;96231.22;;;14.38;44.99
17209;BME280;8720;48.488;9.202;2024-03-23T02:09:00;96230.06;;;14.44;45.00
17209;BME280;8720;48.488;9.202;2024-03-23T02:11:27;96225.06;;;14.55;45.43
17209;BME280;8720;48.488;9.202;2024-03-23T02:13:54;96223.41;;;14.70;45.83
17209;BME280;8720;48.488;9.202;2024-03-23T02:16:21;96217.09;;;14.89;45.84
17209;BME280;8720;48.488;9.202;2024-03-23T02:18:49;96212.38;;;15.11;46.05
17209;BME280;8720;48.488;9.202;2024-03-23T02:21:16;96198.84;;;15.33;46.16
17209;BME280;8720;48.488;9.202;2024-03-23T02:23:44;96193.19;;;15.56;46.07
17209;BME280;8720;48.488;9.202;2024-03-23T02:26:11;96185.66;;;15.80;46.09
17209;BME280;8720;48.488;9.202;2024-03-23T02:28:37;96187.69;;;16.04;46.20
17209;BME280;8720;48.488;9.202;2024-03-23T02:31:05;96173.06;;;16.28;45.60
17209;BME280;8720;48.488;9.202;2024-03-23T02:33:31;96180.69;;;16.49;45.97
17209;BME280;8720;48.488;9.202;2024-03-23T02:36:00;96178.63;;;16.68;45.43
17209;BME280;8720;48.488;9.202;2024-03-23T02:38:26;96178.44;;;16.85;45.34
17209;BME280;8720;48.488;9.202;2024-03-23T02:40:55;96171.31;;;16.99;45.04
17209;BME280;8720;48.488;9.202;2024-03-23T02:43:27;96170.34;;;17.14;44.98
17209;BME280;8720;48.488;9.202;2024-03-23T02:45:54;96168.53;;;17.29;44.82
17209;BME280;8720;48.488;9.202;2024-03-23T02:48:20;96166.69;;;17.44;44.95
17209;BME280;8720;48.488;9.202;2024-03-23T02:50:47;96174.75;;;17.56;44.79
17209;BME280;8720;48.488;9.202;2024-03-23T02:53:14;96176.56;;;17.68;44.50
17209;BME280;8720;48.488;9.202;2024-03-23T02:55:41;96166.25;;;17.78;44.24
17209;BME280;8720;48.488;9.202;2024-03-23T02:58:09;96171.78;;;17.87;44.22
17209;BME280;8720;48.488;9.202;2024-03-23T03:03:18;96166.63;;;17.98;43.84
17209;BME280;8720;48.488;9.202;2024-03-23T03:05:45;96167.38;;;18.00;43.80
17209;BME280;8720;48.488;9.202;2024-03-23T03:08:11;96165.31;;;17.91;43.49
17209;BME280;8720;48.488;9.202;2024-03-23T03:10:38;96167.44;;;17.86;43.16
17209;BME280;8720;48.488;9.202;2024-03-23T03:13:05;96162.19;;;17.72;43.12
17209;BME280;8720;48.488;9.202;2024-03-23T03:15:34;96166.94;;;17.67;42.94
17209;BME280;8720;48.488;9.202;2024-03-23T03:18:00;96162.06;;;17.61;42.82
17209;BME280;8720;48.488;9.202;2024-03-23T03:20:27;96161.69;;;17.53;42.77
17209;BME280;8720;48.488;9.202;2024-03-23T03:22:54;96163.81;;;17.48;43.03
17209;BME280;8720;48.488;9.202;2024-03-23T03:25:21;96165.78;;;17.45;43.31
17209;BME280;8720;48.488;9.202;2024-03-23T03:27:47;96161.50;;;17.42;43.58
17209;BME280;8720;48.488;9.202;2024-03-23T03:30:15;96167.66;;;17.43;43.24
17209;BME280;8720;48.488;9.202;2024-03-23T03:32:42;96170.31;;;17.43;43.63
17209;BME280;8720;48.488;9.202;2024-03-23T03:35:10;96165.88;;;17.43;43.65
17209;BME280;8720;48.488;9.202;2024-03-23T03:37:36;96158.66;;;17.45;43.59
17209;BME280;8720;48.488;9.202;2024-03-23T03:40:04;96161.31;;;17.45;43.57
17209;BME280;8720;48.488;9.202;2024-03-23T03:42:34;96157.84;;;17.45;43.57
17209;BME280;8720;48.488;9.202;2024-03-23T03:45:01;96163.94;;;17.45;43.51
17209;BME280;8720;48.488;9.202;2024-03-23T03:47:30;96155.19;;;17.45;43.45
17209;BME280;8720;48.488;9.202;2024-03-23T03:49:59;96150.00;;;17.43;43.79
17209;BME280;8720;48.488;9.202;2024-03-23T03:52:25;96134.53;;;17.37;43.83
17209;BME280;8720;48.488;9.202;2024-03-23T03:55:02;96129.03;;;17.40;43.70
17209;BME280;8720;48.488;9.202;2024-03-23T03:57:28;96132.66;;;17.39;43.80
17209;BME280;8720;48.488;9.202;2024-03-23T03:59:58;96124.72;;;17.39;43.84
17209;BME280;8720;48.488;9.202;2024-03-23T04:02:24;96113.28;;;17.39;43.76
17209;BME280;8720;48.488;9.202;2024-03-23T04:04:51;96110.63;;;17.39;43.98
17209;BME280;8720;48.488;9.202;2024-03-23T04:07:19;96108.91;;;17.38;43.94
17209;BME280;8720;48.488;9.202;2024-03-23T04:09:49;96090.72;;;17.33;43.99
17209;BME280;8720;48.488;9.202;2024-03-23T04:12:15;96089.59;;;17.37;43.77
17209;BME280;8720;48.488;9.202;2024-03-23T04:14:42;96079.31;;;17.33;43.94
17209;BME280;8720;48.488;9.202;2024-03-23T04:17:09;96077.28;;;17.36;44.05
17209;BME280;8720;48.488;9.202;2024-03-23T04:19:39;96060.50;;;17.37;43.74
17209;BME280;8720;48.488;9.202;2024-03-23T04:22:06;96058.69;;;17.38;43.79
17209;BME280;8720;48.488;9.202;2024-03-23T04:24:34;96044.53;;;17.39;44.14
17209;BME280;8720;48.488;9.202;2024-03-23T04:27:00;96032.25;;;17.38;44.00
17209;BME280;8720;48.488;9.202;2024-03-23T04:29:29;96026.88;;;17.39;43.93
17209;BME280;8720;48.488;9.202;2024-03-23T04:31:55;96023.28;;;17.40;43.77
17209;BME280;8720;48.488;9.202;2024-03-23T04:34:22;96016.31;;;17.39;43.60
17209;BME280;8720;48.488;9.202;2024-03-23T04:36:49;96013.72;;;17.38;43.61
17209;BME280;8720;48.488;9.202;2024-03-23T04:39:16;96002.75;;;17.44;43.69
17209;BME280;8720;48.488;9.202;2024-03-23T04:41:46;95998.31;;;17.44;43.61
17209;BME280;8720;48.488;9.202;2024-03-23T04:44:14;96000.00;;;17.45;43.38
17209;BME280;8720;48.488;9.202;2024-03-23T04:46:41;96004.34;;;17.46;43.52
17209;BME280;8720;48.488;9.202;2024-03-23T04:49:08;95997.56;;;17.42;43.68
17209;BME280;8720;48.488;9.202;2024-03-23T04:51:36;95998.31;;;17.44;43.42
17209;BME280;8720;48.488;9.202;2024-03-23T04:54:04;95991.59;;;17.53;43.33
17209;BME280;8720;48.488;9.202;2024-03-23T04:56:32;95982.50;;;17.57;43.41
17209;BME280;8720;48.488;9.202;2024-03-23T04:59:01;95983.03;;;17.62;43.25
17209;BME280;8720;48.488;9.202;2024-03-23T05:01:28;95990.69;;;17.66;43.08
17209;BME280;8720;48.488;9.202;2024-03-23T05:03:55;95991.31;;;17.70;42.88
17209;BME280;8720;48.488;9.202;2024-03-23T05:06:21;95998.81;;;17.76;42.97
17209;BME280;8720;48.488;9.202;2024-03-23T05:08:49;95977.97;;;17.71;43.10
17209;BME280;8720;48.488;9.202;2024-03-23T05:11:15;95982.94;;;17.88;43.03
17209;BME280;8720;48.488;9.202;2024-03-23T05:13:43;95982.63;;;17.93;42.69
17209;BME280;8720;48.488;9.202;2024-03-23T05:16:11;95988.25;;;18.01;42.46
17209;BME280;8720;48.488;9.202;2024-03-23T05:18:39;95977.44;;;18.04;42.55
17209;BME280;8720;48.488;9.202;2024-03-23T05:21:05;95984.09;;;18.09;42.56
17209;BME280;8720;48.488;9.202;2024-03-23T05:23:32;95989.91;;;18.14;42.68
17209;BME280;8720;48.488;9.202;2024-03-23T05:25:59;96013.53;;;18.17;42.71
17209;BME280;8720;48.488;9.202;2024-03-23T05:28:26;96021.59;;;18.16;42.65
17209;BME280;8720;48.488;9.202;2024-03-23T05:30:54;96001.88;;;18.07;42.39
17209;BME280;8720;48.488;9.202;2024-03-23T05:33:24;96018.72;;;17.94;42.91
17209;BME280;8720;48.488;9.202;2024-03-23T05:35:57;96043.59;;;17.79;43.28
17209;BME280;8720;48.488;9.202;2024-03-23T05:38:25;96084.06;;;17.54;43.75
17209;BME280;8720;48.488;9.202;2024-03-23T05:40:55;96110.81;;;17.36;44.87
17209;BME280;8720;48.488;9.202;2024-03-23T05:43:23;96145.41;;;17.33;48.81
17209;BME280;8720;48.488;9.202;2024-03-23T05:45:54;96156.72;;;16.94;48.25
17209;BME280;8720;48.488;9.202;2024-03-23T05:48:23;96161.78;;;16.55;48.99
17209;BME280;8720;48.488;9.202;2024-03-23T05:50:50;96169.16;;;16.20;49.48
17209;BME280;8720;48.488;9.202;2024-03-23T05:53:18;96177.59;;;15.97;50.83
17209;BME280;8720;48.488;9.202;2024-03-23T05:55:45;96181.41;;;15.77;51.43
17209;BME280;8720;48.488;9.202;2024-03-23T05:58:15;96196.56;;;15.58;52.11
17209;BME280;8720;48.488;9.202;2024-03-23T06:00:41;96198.19;;;15.45;52.83
17209;BME280;8720;48.488;9.202;2024-03-23T06:03:09;96210.16;;;15.35;53.84
17209;BME280;8720;48.488;9.202;2024-03-23T06:05:37;96205.50;;;15.24;54.77
17209;BME280;8720;48.488;9.202;2024-03-23T06:08:06;96216.53;;;15.15;55.48
17209;BME280;8720;48.488;9.202;2024-03-23T06:10:32;96226.72;;;15.06;56.06
17209;BME280;8720;48.488;9.202;2024-03-23T06:13:00;96230.53;;;15.00;56.41
17209;BME280;8720;48.488;9.202;2024-03-23T06:15:28;96245.66;;;14.97;57.03
17209;BME280;8720;48.488;9.202;2024-03-23T06:17:54;96251.94;;;14.94;57.40
17209;BME280;8720;48.488;9.202;2024-03-23T06:20:22;96257.28;;;14.93;57.42
17209;BME280;8720;48.488;9.202;2024-03-23T06:22:49;96250.31;;;14.92;57.97
17209;BME280;8720;48.488;9.202;2024-03-23T06:25:16;96257.44;;;14.90;57.85
17209;BME280;8720;48.488;9.202;2024-03-23T06:27:43;96261.19;;;14.86;58.01
17209;BME280;8720;48.488;9.202;2024-03-23T06:30:12;96263.91;;;14.84;58.16
17209;BME280;8720;48.488;9.202;2024-03-23T06:32:39;96279.84;;;14.81;58.34
17209;BME280;8720;48.488;9.202;2024-03-23T06:35:07;96282.72;;;14.77;58.25
17209;BME280;8720;48.488;9.202;2024-03-23T06:37:35;96285.69;;;14.71;58.27
17209;BME280;8720;48.488;9.202;2024-03-23T06:40:06;96292.25;;;14.62;58.08
17209;BME280;8720;48.488;9.202;2024-03-23T06:42:35;96291.78;;;14.54;58.39
17209;BME280;8720;48.488;9.202;2024-03-23T06:45:03;96294.59;;;14.51;58.20
17209;BME280;8720;48.488;9.202;2024-03-23T06:47:31;96306.28;;;14.45;58.38
17209;BME280;8720;48.488;9.202;2024-03-23T06:49:59;96317.28;;;14.36;58.51
17209;BME280;8720;48.488;9.202;2024-03-23T06:52:27;96320.22;;;14.30;58.84
17209;BME280;8720;48.488;9.202;2024-03-23T06:54:58;96333.13;;;14.35;58.52
17209;BME280;8720;48.488;9.202;2024-03-23T06:57:26;96324.97;;;14.22;58.81
17209;BME280;8720;48.488;9.202;2024-03-23T06:59:53;96330.88;;;14.27;58.92
17209;BME280;8720;48.488;9.202;2024-03-23T07:02:19;96322.13;;;14.27;59.03
17209;BME280;8720;48.488;9.202;2024-03-23T07:04:47;96321.41;;;14.23;58.92
17209;BME280;8720;48.488;9.202;2024-03-23T07:07:13;96327.69;;;14.21;59.04
17209;BME280;8720;48.488;9.202;2024-03-23T07:09:41;96332.22;;;14.17;59.04
17209;BME280;8720;48.488;9.202;2024-03-23T07:12:07;96335.19;;;14.11;58.82
17209;BME280;8720;48.488;9.202;2024-03-23T07:14:36;96335.38;;;14.07;58.90
17209;BME280;8720;48.488;9.202;2024-03-23T07:17:02;96342.66;;;14.02;58.75
17209;BME280;8720;48.488;9.202;2024-03-23T07:19:30;96347.19;;;13.98;59.11
17209;BME280;8720;48.488;9.202;2024-03-23T07:21:56;96357.88;;;13.95;59.23
17209;BME280;8720;48.488;9.202;2024-03-23T07:24:23;96358.72;;;13.96;59.35
17209;BME280;8720;48.488;9.202;2024-03-23T07:26:50;96351.66;;;13.96;59.18
17209;BME280;8720;48.488;9.202;2024-03-23T07:29:20;96373.50;;;13.98;59.49
17209;BME280;8720;48.488;9.202;2024-03-23T07:31:48;96383.88;;;14.01;59.48
17209;BME280;8720;48.488;9.202;2024-03-23T07:34:15;96374.75;;;14.08;59.74
17209;BME280;8720;48.488;9.202;2024-03-23T07:36:41;96384.22;;;14.12;59.87
17209;BME280;8720;48.488;9.202;2024-03-23T07:39:09;96379.72;;;14.14;59.94
17209;BME280;8720;48.488;9.202;2024-03-23T07:41:35;96383.22;;;14.15;59.92
17209;BME280;8720;48.488;9.202;2024-03-23T07:44:03;96391.81;;;14.18;59.83
17209;BME280;8720;48.488;9.202;2024-03-23T07:46:29;96403.03;;;14.22;59.84
17209;BME280;8720;48.488;9.202;2024-03-23T07:48:58;96407.19;;;14.27;60.04
17209;BME280;8720;48.488;9.202;2024-03-23T07:51:25;96399.78;;;14.35;59.86
17209;BME280;8720;48.488;9.202;2024-03-23T07:53:52;96403.81;;;14.42;59.92
17209;BME280;8720;48.488;9.202;2024-03-23T07:56:19;96416.81;;;14.45;59.94
17209;BME280;8720;48.488;9.202;2024-03-23T07:58:47;96419.28;;;14.48;59.80
17209;BME280;8720;48.488;9.202;2024-03-23T08:01:16;96424.50;;;14.50;60.09
17209;BME280;8720;48.488;9.202;2024-03-23T08:03:45;96427.88;;;14.52;60.01
17209;BME280;8720;48.488;9.202;2024-03-23T08:06:16;96425.75;;;14.60;60.12
17209;BME280;8720;48.488;9.202;2024-03-23T08:08:46;96444.66;;;14.68;60.24
17209;BME280;8720;48.488;9.202;2024-03-23T08:11:13;96449.00;;;14.69;60.04
17209;BME280;8720;48.488;9.202;2024-03-23T08:13:42;96457.72;;;14.70;59.85
17209;BME280;8720;48.488;9.202;2024-03-23T08:16:09;96478.78;;;14.70;59.82
17209;BME280;8720;48.488;9.202;2024-03-23T08:18:36;96499.06;;;14.68;59.47
17209;BME280;8720;48.488;9.202;2024-03-23T08:21:04;96478.44;;;14.41;58.88
17209;BME280;8720;48.488;9.202;2024-03-23T08:23:35;96525.50;;;14.47;58.78
17209;BME280;8720;48.488;9.202;2024-03-23T08:26:03;96529.28;;;14.42;59.30
17209;BME280;8720;48.488;9.202;2024-03-23T08:28:32;96525.09;;;14.38;59.07
17209;BME280;8720;48.488;9.202;2024-03-23T08:31:02;96528.72;;;14.35;59.10
17209;BME280;8720;48.488;9.202;2024-03-23T08:33:30;96518.81;;;14.40;59.69
17209;BME280;8720;48.488;9.202;2024-03-23T08:35:58;96536.16;;;14.44;59.97
17209;BME280;8720;48.488;9.202;2024-03-23T08:38:27;96563.84;;;14.53;59.79
17209;BME280;8720;48.488;9.202;2024-03-23T08:41:00;96580.84;;;14.65;59.79
17209;BME280;8720;48.488;9.202;2024-03-23T08:43:29;96581.56;;;14.68;59.68
17209;BME280;8720;48.488;9.202;2024-03-23T08:46:04;96595.38;;;14.73;59.44
17209;BME280;8720;48.488;9.202;2024-03-23T08:48:32;96601.41;;;14.75;59.19
17209;BME280;8720;48.488;9.202;2024-03-23T08:51:03;96612.94;;;14.73;58.55
17209;BME280;8720;48.488;9.202;2024-03-23T08:53:30;96620.97;;;14.70;58.65
17209;BME280;8720;48.488;9.202;2024-03-23T08:56:00;96620.25;;;14.66;58.38
17209;BME280;8720;48.488;9.202;2024-03-23T08:58:30;96617.88;;;14.62;57.96
17209;BME280;8720;48.488;9.202;2024-03-23T09:01:07;96618.00;;;14.58;57.86
17209;BME280;8720;48.488;9.202;2024-03-23T09:03:36;96615.78;;;14.49;57.56
17209;BME280;8720;48.488;9.202;2024-03-23T09:06:07;96621.84;;;14.51;57.54
17209;BME280;8720;48.488;9.202;2024-03-23T09:08:35;96628.94;;;14.49;57.32
17209;BME280;8720;48.488;9.202;2024-03-23T09:11:06;96636.84;;;14.49;57.19
17209;BME280;8720;48.488;9.202;2024-03-23T09:13:34;96629.03;;;14.48;57.57
17209;BME280;8720;48.488;9.202;2024-03-23T09:16:02;96632.50;;;14.48;57.54
17209;BME280;8720;48.488;9.202;2024-03-23T09:18:32;96638.41;;;14.53;57.79
17209;BME280;8720;48.488;9.202;2024-03-23T09:20:59;96643.53;;;14.56;57.22
17209;BME280;8720;48.488;9.202;2024-03-23T09:23:30;96646.31;;;14.53;56.88
17209;BME280;8720;48.488;9.202;2024-03-23T09:25:56;96630.72;;;14.49;56.69
17209;BME280;8720;48.488;9.202;2024-03-23T09:28:25;96635.13;;;14.48;57.17
17209;BME280;8720;48.488;9.202;2024-03-23T09:30:52;96634.22;;;14.49;57.01
17209;BME280;8720;48.488;9.202;2024-03-23T09:33:19;96635.19;;;14.47;56.69
17209;BME280;8720;48.488;9.202;2024-03-23T09:35:46;96633.69;;;14.41;56.89
17209;BME280;8720;48.488;9.202;2024-03-23T09:38:13;96643.38;;;14.41;56.92
17209;BME280;8720;48.488;9.202;2024-03-23T09:40:41;96637.31;;;14.39;56.48
17209;BME280;8720;48.488;9.202;2024-03-23T09:43:10;96639.31;;;14.34;56.69
17209;BME280;8720;48.488;9.202;2024-03-23T09:45:40;96633.34;;;14.30;56.99
17209;BME280;8720;48.488;9.202;2024-03-23T09:48:09;96620.22;;;14.29;56.94
17209;BME280;8720;48.488;9.202;2024-03-23T09:50:37;96633.34;;;14.30;57.18
17209;BME280;8720;48.488;9.202;2024-03-23T09:53:06;96635.03;;;14.31;57.54
17209;BME280;8720;48.488;9.202;2024-03-23T09:55:33;96625.22;;;14.35;57.64
17209;BME280;8720;48.488;9.202;2024-03-23T09:58:01;96628.91;;;14.31;57.94
17209;BME280;8720;48.488;9.202;2024-03-23T10:00:28;96633.69;;;14.41;57.63
17209;BME280;8720;48.488;9.202;2024-03-23T10:02:58;96631.59;;;14.49;57.68
17209;BME280;8720;48.488;9.202;2024-03-23T10:05:28;96634.72;;;14.57;57.86
17209;BME280;8720;48.488;9.202;2024-03-23T10:07:57;96626.31;;;14.68;57.95
17209;BME280;8720;48.488;9.202;2024-03-23T10:10:25;96625.09;;;14.75;57.46
17209;BME280;8720;48.488;9.202;2024-03-23T10:12:53;96608.19;;;14.81;57.51
17209;BME280;8720;48.488;9.202;2024-03-23T10:15:23;96587.91;;;14.83;57.43
17209;BME280;8720;48.488;9.202;2024-03-23T10:17:52;96606.31;;;15.01;57.59
17209;BME280;8720;48.488;9.202;2024-03-23T10:20:23;96606.53;;;15.14;57.56
17209;BME280;8720;48.488;9.202;2024-03-23T10:22:51;96613.78;;;15.27;57.16
17209;BME280;8720;48.488;9.202;2024-03-23T10:25:22;96616.00;;;15.36;56.58
17209;BME280;8720;48.488;9.202;2024-03-23T10:27:59;96611.41;;;15.40;56.83
17209;BME280;8720;48.488;9.202;2024-03-23T10:30:26;96606.66;;;15.48;56.67
17209;BME280;8720;48.488;9.202;2024-03-23T10:33:08;96600.34;;;15.51;56.11
17209;BME280;8720;48.488;9.202;2024-03-23T10:35:37;96605.56;;;15.52;56.22
17209;BME280;8720;48.488;9.202;2024-03-23T10:38:07;96595.25;;;15.48;55.79
17209;BME280;8720;48.488;9.202;2024-03-23T10:40:35;96601.13;;;15.53;55.69
17209;BME280;8720;48.488;9.202;2024-03-23T10:43:04;96597.19;;;15.61;55.82
17209;BME280;8720;48.488;9.202;2024-03-23T10:45:30;96596.59;;;15.73;55.63
17209;BME280;8720;48.488;9.202;2024-03-23T10:47:58;96595.78;;;15.88;55.66
17209;BME280;8720;48.488;9.202;2024-03-23T10:50:25;96572.72;;;15.92;55.33
17209;BME280;8720;48.488;9.202;2024-03-23T10:52:55;96585.81;;;16.10;54.63
17209;BME280;8720;48.488;9.202;2024-03-23T10:55:26;96582.00;;;16.16;54.47
17209;BME280;8720;48.488;9.202;2024-03-23T10:57:56;96581.75;;;16.20;54.26
17209;BME280;8720;48.488;9.202;2024-03-23T11:00:25;96584.25;;;16.23;54.44
17209;BME280;8720;48.488;9.202;2024-03-23T11:02:53;96606.06;;;16.27;54.40
17209;BME280;8720;48.488;9.202;2024-03-23T11:05:31;96672.88;;;16.27;53.76
17209;BME280;8720;48.488;9.202;2024-03-23T11:08:01;96704.56;;;16.10;53.99
17209;BME280;8720;48.488;9.202;2024-03-23T11:10:29;96696.84;;;15.72;53.29
17209;BME280;8720;48.488;9.202;2024-03-23T11:13:22;96695.16;;;15.16;53.95
17209;BME280;8720;48.488;9.202;2024-03-23T11:15:49;96710.16;;;14.77;54.23
17209;BME280;8720;48.488;9.202;2024-03-23T11:18:21;96709.03;;;14.44;54.14
17209;BME280;8720;48.488;9.202;2024-03-23T11:20:48;96701.47;;;14.16;54.90
17209;BME280;8720;48.488;9.202;2024-03-23T11:23:28;96700.72;;;13.93;55.57
17209;BME280;8720;48.488;9.202;2024-03-23T11:25:55;96703.09;;;13.79;55.97
17209;BME280;8720;48.488;9.202;2024-03-23T11:28:23;96697.28;;;13.71;56.40
17209;BME280;8720;48.488;9.202;2024-03-23T11:30:49;96708.84;;;13.66;56.75
17209;BME280;8720;48.488;9.202;2024-03-23T11:33:17;96711.53;;;13.65;56.78
17209;BME280;8720;48.488;9.202;2024-03-23T11:35:44;96710.69;;;13.64;56.73
17209;BME280;8720;48.488;9.202;2024-03-23T11:38:14;96699.56;;;13.58;56.92
17209;BME280;8720;48.488;9.202;2024-03-23T11:40:43;96699.56;;;13.58;57.24
17209;BME280;8720;48.488;9.202;2024-03-23T11:43:14;96709.19;;;13.57;57.47
17209;BME280;8720;48.488;9.202;2024-03-23T11:45:44;96707.50;;;13.56;57.45
17209;BME280;8720;48.488;9.202;2024-03-23T11:48:15;96719.78;;;13.56;57.23
17209;BME280;8720;48.488;9.202;2024-03-23T11:50:45;96721.50;;;13.57;57.49
17209;BME280;8720;48.488;9.202;2024-03-23T11:53:17;96723.19;;;13.58;57.00
17209;BME280;8720;48.488;9.202;2024-03-23T11:55:50;96726.75;;;13.57;56.86
17209;BME280;8720;48.488;9.202;2024-03-23T11:58:19;96724.94;;;13.59;57.08
17209;BME280;8720;48.488;9.202;2024-03-23T12:00:52;96714.34;;;13.60;56.90
17209;BME280;8720;48.488;9.202;2024-03-23T12:03:20;96725.84;;;13.58;56.68
17209;BME280;8720;48.488;9.202;2024-03-23T12:05:53;96716.34;;;13.54;56.44
17209;BME280;8720;48.488;9.202;2024-03-23T12:08:23;96709.59;;;13.48;55.94
17209;BME280;8720;48.488;9.202;2024-03-23T12:10:53;96706.41;;;13.40;55.83
17209;BME280;8720;48.488;9.202;2024-03-23T12:13:32;96707.63;;;13.32;55.89
17209;BME280;8720;48.488;9.202;2024-03-23T12:16:11;96717.72;;;13.21;56.21
17209;BME280;8720;48.488;9.202;2024-03-23T12:18:41;96716.94;;;13.19;56.44
17209;BME280;8720;48.488;9.202;2024-03-23T12:21:07;96720.59;;;13.15;56.77
17209;BME280;8720;48.488;9.202;2024-03-23T12:23:38;96711.28;;;13.06;56.08
17209;BME280;8720;48.488;9.202;2024-03-23T12:26:06;96726.81;;;13.12;56.42
17209;BME280;8720;48.488;9.202;2024-03-23T12:28:34;96719.94;;;13.08;56.53
17209;BME280;8720;48.488;9.202;2024-03-23T12:31:01;96710.41;;;13.06;56.64
17209;BME280;8720;48.488;9.202;2024-03-23T12:33:28;96718.56;;;12.98;56.40
17209;BME280;8720;48.488;9.202;2024-03-23T12:35:55;96726.38;;;13.00;56.31
17209;BME280;8720;48.488;9.202;2024-03-23T12:38:23;96727.44;;;12.96;56.60
17209;BME280;8720;48.488;9.202;2024-03-23T12:40:50;96715.19;;;12.95;56.13
17209;BME280;8720;48.488;9.202;2024-03-23T12:43:19;96709.16;;;12.93;56.87
17209;BME280;8720;48.488;9.202;2024-03-23T12:45:47;96709.94;;;12.95;57.16
17209;BME280;8720;48.488;9.202;2024-03-23T12:48:14;96696.72;;;12.98;57.43
17209;BME280;8720;48.488;9.202;2024-03-23T12:50:41;96706.81;;;13.08;57.69
17209;BME280;8720;48.488;9.202;2024-03-23T12:53:08;96702.94;;;13.18;57.70
17209;BME280;8720;48.488;9.202;2024-03-23T12:55:35;96697.38;;;13.26;57.58
17209;BME280;8720;48.488;9.202;2024-03-23T12:58:03;96689.19;;;13.33;57.96
17209;BME280;8720;48.488;9.202;2024-03-23T13:00:32;96698.59;;;13.39;57.57
17209;BME280;8720;48.488;9.202;2024-03-23T13:02:59;96702.00;;;13.41;57.42
17209;BME280;8720;48.488;9.202;2024-03-23T13:05:25;96694.91;;;13.43;57.60
17209;BME280;8720;48.488;9.202;2024-03-23T13:07:53;96689.50;;;13.47;57.24
17209;BME280;8720;48.488;9.202;2024-03-23T13:10:19;96694.28;;;13.58;57.47
17209;BME280;8720;48.488;9.202;2024-03-23T13:12:47;96688.53;;;13.70;57.36
17209;BME280;8720;48.488;9.202;2024-03-23T13:15:14;96682.06;;;13.79;57.21
17209;BME280;8720;48.488;9.202;2024-03-23T13:17:44;96668.59;;;13.86;57.37
17209;BME280;8720;48.488;9.202;2024-03-23T13:20:11;96666.59;;;13.91;57.47
17209;BME280;8720;48.488;9.202;2024-03-23T13:22:40;96651.44;;;13.98;57.24
17209;BME280;8720;48.488;9.202;2024-03-23T13:25:08;96644.25;;;14.01;56.88
17209;BME280;8720;48.488;9.202;2024-03-23T13:27:35;96644.91;;;14.06;57.27
17209;BME280;8720;48.488;9.202;2024-03-23T13:30:02;96635.88;;;14.12;56.97
17209;BME280;8720;48.488;9.202;2024-03-23T13:32:30;96634.75;;;14.17;57.03
17209;BME280;8720;48.488;9.202;2024-03-23T13:34:57;96629.22;;;14.23;56.65
17209;BME280;8720;48.488;9.202;2024-03-23T13:37:25;96628.91;;;14.31;56.58
17209;BME280;8720;48.488;9.202;2024-03-23T13:39:52;96635.81;;;14.33;56.82
17209;BME280;8720;48.488;9.202;2024-03-23T13:42:20;96626.78;;;14.39;56.64
17209;BME280;8720;48.488;9.202;2024-03-23T13:44:46;96617.84;;;14.43;56.62
17209;BME280;8720;48.488;9.202;2024-03-23T13:47:14;96619.47;;;14.45;56.23
17209;BME280;8720;48.488;9.202;2024-03-23T13:49:40;96613.28;;;14.46;55.98
17209;BME280;8720;48.488;9.202;2024-03-23T13:52:09;96613.28;;;14.46;55.86
17209;BME280;8720;48.488;9.202;2024-03-23T13:54:36;96608.97;;;14.45;56.09
17209;BME280;8720;48.488;9.202;2024-03-23T13:57:04;96606.31;;;14.45;55.94
17209;BME280;8720;48.488;9.202;2024-03-23T13:59:30;96600.19;;;14.45;56.44
17209;BME280;8720;48.488;9.202;2024-03-23T14:01:58;96595.94;;;14.61;56.59
17209;BME280;8720;48.488;9.202;2024-03-23T14:04:24;96603.47;;;14.69;56.16
17209;BME280;8720;48.488;9.202;2024-03-23T14:06:52;96597.22;;;14.71;56.01
17209;BME280;8720;48.488;9.202;2024-03-23T14:09:20;96602.53;;;14.70;55.27
17209;BME280;8720;48.488;9.202;2024-03-23T14:11:49;96608.88;;;14.66;55.45